sensor_id;sensor_type;location;lat;lon;timestamp;P1;durP1;ratioP1;P2;durP2;ratioP2
4200;SDS011;2114;50.398;8.814;2023-04-06T00:01:40;1.37;;;1.30;;
4200;SDS011;2114;50.398;8.814;2023-04-06T00:06:40;1.10;;;1.00;;
4200;SDS011;2114;50.398;8.814;2023-04-06T00:11:41;1.53;;;1.33;;
4200;SDS011;2114;50.398;8.814;2023-04-06T00:16:41;1.30;;;1.17;;
4200;SDS011;2114;50.398;8.814;2023-04-06T00:21:42;1.60;;;1.53;;
4200;SDS011;2114;50.398;8.814;2023-04-06T00:26:42;2.17;;;2.07;;
4200;SDS011;2114;50.398;8.814;2023-04-06T00:31:43;1.30;;;1.20;;
4200;SDS011;2114;50.398;8.814;2023-04-06T00:36:44;1.30;;;1.20;;
4200;SDS011;2114;50.398;8.814;2023-04-06T00:41:45;3.33;;;1.47;;
4200;SDS011;2114;50.398;8.814;2023-04-06T00:46:49;0.83;;;0.83;;
4200;SDS011;2114;50.398;8.814;2023-04-06T00:51:49;1.90;;;1.80;;
4200;SDS011;2114;50.398;8.814;2023-04-06T00:56:50;1.73;;;1.53;;
4200;SDS011;2114;50.398;8.814;2023-04-06T01:01:51;0.73;;;0.73;;
4200;SDS011;2114;50.398;8.814;2023-04-06T01:06:52;1.27;;;1.27;;
4200;SDS011;2114;50.398;8.814;2023-04-06T01:11:52;3.00;;;0.97;;
4200;SDS011;2114;50.398;8.814;2023-04-06T01:16:53;2.20;;;2.10;;
4200;SDS011;2114;50.398;8.814;2023-04-06T01:21:54;0.80;;;0.80;;
4200;SDS011;2114;50.398;8.814;2023-04-06T01:26:55;1.00;;;1.00;;
4200;SDS011;2114;50.398;8.814;2023-04-06T01:31:56;2.00;;;1.40;;
4200;SDS011;2114;50.398;8.814;2023-04-06T01:36:57;1.27;;;1.23;;
4200;SDS011;2114;50.398;8.814;2023-04-06T01:41:57;0.80;;;0.80;;
4200;SDS011;2114;50.398;8.814;2023-04-06T01:46:58;0.90;;;0.90;;
4200;SDS011;2114;50.398;8.814;2023-04-06T01:51:58;1.30;;;1.30;;
4200;SDS011;2114;50.398;8.814;2023-04-06T01:56:59;0.90;;;0.90;;
4200;SDS011;2114;50.398;8.814;2023-04-06T02:02:00;0.80;;;0.80;;
4200;SDS011;2114;50.398;8.814;2023-04-06T02:07:00;1.80;;;1.13;;
4200;SDS011;2114;50.398;8.814;2023-04-06T02:12:01;0.90;;;0.90;;
4200;SDS011;2114;50.398;8.814;2023-04-06T02:17:01;1.00;;;1.00;;
4200;SDS011;2114;50.398;8.814;2023-04-06T02:22:02;0.60;;;0.60;;
4200;SDS011;2114;50.398;8.814;2023-04-06T02:27:03;0.70;;;0.70;;
4200;SDS011;2114;50.398;8.814;2023-04-06T02:32:03;0.67;;;0.67;;
4200;SDS011;2114;50.398;8.814;2023-04-06T02:37:04;1.00;;;1.00;;
4200;SDS011;2114;50.398;8.814;2023-04-06T02:42:05;0.70;;;0.70;;
4200;SDS011;2114;50.398;8.814;2023-04-06T02:47:05;1.00;;;1.00;;
4200;SDS011;2114;50.398;8.814;2023-04-06T02:52:06;1.03;;;1.03;;
4200;SDS011;2114;50.398;8.814;2023-04-06T02:57:07;1.23;;;1.13;;
4200;SDS011;2114;50.398;8.814;2023-04-06T03:02:08;1.23;;;1.20;;
4200;SDS011;2114;50.398;8.814;2023-04-06T03:07:08;0.90;;;0.90;;
4200;SDS011;2114;50.398;8.814;2023-04-06T03:12:09;1.10;;;1.10;;
4200;SDS011;2114;50.398;8.814;2023-04-06T03:17:10;0.80;;;0.80;;
4200;SDS011;2114;50.398;8.814;2023-04-06T03:22:10;0.73;;;0.73;;
4200;SDS011;2114;50.398;8.814;2023-04-06T03:27:11;0.70;;;0.70;;
4200;SDS011;2114;50.398;8.814;2023-04-06T03:32:11;0.90;;;0.90;;
4200;SDS011;2114;50.398;8.814;2023-04-06T03:37:12;1.60;;;1.50;;
4200;SDS011;2114;50.398;8.814;2023-04-06T03:42:12;0.90;;;0.90;;
4200;SDS011;2114;50.398;8.814;2023-04-06T03:47:13;1.23;;;1.13;;
4200;SDS011;2114;50.398;8.814;2023-04-06T03:52:14;0.80;;;0.80;;
4200;SDS011;2114;50.398;8.814;2023-04-06T03:57:15;0.93;;;0.93;;
4200;SDS011;2114;50.398;8.814;2023-04-06T04:02:16;0.90;;;0.90;;
4200;SDS011;2114;50.398;8.814;2023-04-06T04:07:17;0.80;;;0.80;;
4200;SDS011;2114;50.398;8.814;2023-04-06T04:12:18;1.63;;;1.53;;
4200;SDS011;2114;50.398;8.814;2023-04-06T04:17:19;0.87;;;0.87;;
4200;SDS011;2114;50.398;8.814;2023-04-06T04:22:20;6.27;;;1.30;;
4200;SDS011;2114;50.398;8.814;2023-04-06T04:27:20;0.87;;;0.80;;
4200;SDS011;2114;50.398;8.814;2023-04-06T04:32:21;0.80;;;0.80;;
4200;SDS011;2114;50.398;8.814;2023-04-06T04:37:22;0.93;;;0.93;;
4200;SDS011;2114;50.398;8.814;2023-04-06T04:42:22;0.90;;;0.90;;
4200;SDS011;2114;50.398;8.814;2023-04-06T04:47:23;0.90;;;0.90;;
4200;SDS011;2114;50.398;8.814;2023-04-06T04:52:23;1.10;;;1.10;;
4200;SDS011;2114;50.398;8.814;2023-04-06T04:57:24;0.70;;;0.70;;
4200;SDS011;2114;50.398;8.814;2023-04-06T05:02:25;1.10;;;1.10;;
4200;SDS011;2114;50.398;8.814;2023-04-06T05:07:25;0.70;;;0.70;;
4200;SDS011;2114;50.398;8.814;2023-04-06T05:12:26;1.23;;;1.10;;
4200;SDS011;2114;50.398;8.814;2023-04-06T05:17:27;1.27;;;1.20;;
4200;SDS011;2114;50.398;8.814;2023-04-06T05:22:28;0.83;;;0.80;;
4200;SDS011;2114;50.398;8.814;2023-04-06T05:27:28;0.87;;;0.87;;
4200;SDS011;2114;50.398;8.814;2023-04-06T05:32:29;1.50;;;1.27;;
4200;SDS011;2114;50.398;8.814;2023-04-06T05:37:29;0.80;;;0.80;;
4200;SDS011;2114;50.398;8.814;2023-04-06T05:42:40;0.80;;;0.80;;
4200;SDS011;2114;50.398;8.814;2023-04-06T05:47:42;1.13;;;1.13;;
4200;SDS011;2114;50.398;8.814;2023-04-06T05:52:46;1.03;;;1.03;;
4200;SDS011;2114;50.398;8.814;2023-04-06T05:57:47;1.73;;;1.63;;
4200;SDS011;2114;50.398;8.814;2023-04-06T06:02:47;0.93;;;0.93;;
4200;SDS011;2114;50.398;8.814;2023-04-06T06:07:48;0.93;;;0.73;;
4200;SDS011;2114;50.398;8.814;2023-04-06T06:12:48;0.87;;;0.80;;
4200;SDS011;2114;50.398;8.814;2023-04-06T06:17:49;2.40;;;1.00;;
4200;SDS011;2114;50.398;8.814;2023-04-06T06:22:49;1.43;;;1.33;;
4200;SDS011;2114;50.398;8.814;2023-04-06T06:27:50;0.80;;;0.80;;
4200;SDS011;2114;50.398;8.814;2023-04-06T06:32:50;0.63;;;0.63;;
4200;SDS011;2114;50.398;8.814;2023-04-06T06:37:51;0.97;;;0.97;;
4200;SDS011;2114;50.398;8.814;2023-04-06T06:42:52;1.20;;;1.20;;
4200;SDS011;2114;50.398;8.814;2023-04-06T06:47:52;0.70;;;0.70;;
4200;SDS011;2114;50.398;8.814;2023-04-06T06:52:53;4.93;;;1.37;;
4200;SDS011;2114;50.398;8.814;2023-04-06T06:57:53;0.97;;;0.90;;
4200;SDS011;2114;50.398;8.814;2023-04-06T07:02:54;0.80;;;0.80;;
4200;SDS011;2114;50.398;8.814;2023-04-06T07:07:55;1.30;;;1.30;;
4200;SDS011;2114;50.398;8.814;2023-04-06T07:12:56;0.90;;;0.90;;
4200;SDS011;2114;50.398;8.814;2023-04-06T07:17:56;1.13;;;1.10;;
4200;SDS011;2114;50.398;8.814;2023-04-06T07:22:57;0.93;;;0.93;;
4200;SDS011;2114;50.398;8.814;2023-04-06T07:27:58;1.23;;;1.17;;
4200;SDS011;2114;50.398;8.814;2023-04-06T07:32:58;0.90;;;0.90;;
4200;SDS011;2114;50.398;8.814;2023-04-06T07:37:59;2.40;;;1.53;;
4200;SDS011;2114;50.398;8.814;2023-04-06T07:43:00;0.90;;;0.90;;
4200;SDS011;2114;50.398;8.814;2023-04-06T07:48:01;1.87;;;1.77;;
4200;SDS011;2114;50.398;8.814;2023-04-06T07:53:02;1.73;;;1.30;;
4200;SDS011;2114;50.398;8.814;2023-04-06T07:58:03;1.37;;;1.30;;
4200;SDS011;2114;50.398;8.814;2023-04-06T08:03:03;4.30;;;1.93;;
4200;SDS011;2114;50.398;8.814;2023-04-06T08:08:04;1.70;;;1.40;;
4200;SDS011;2114;50.398;8.814;2023-04-06T08:13:04;2.33;;;1.87;;
4200;SDS011;2114;50.398;8.814;2023-04-06T08:18:05;4.93;;;3.77;;
4200;SDS011;2114;50.398;8.814;2023-04-06T08:23:06;8.30;;;3.10;;
4200;SDS011;2114;50.398;8.814;2023-04-06T08:28:10;3.90;;;3.60;;
4200;SDS011;2114;50.398;8.814;2023-04-06T08:33:11;2.53;;;1.97;;
4200;SDS011;2114;50.398;8.814;2023-04-06T08:38:11;3.47;;;3.07;;
4200;SDS011;2114;50.398;8.814;2023-04-06T08:43:13;6.20;;;3.97;;
4200;SDS011;2114;50.398;8.814;2023-04-06T08:48:14;2.87;;;2.47;;
4200;SDS011;2114;50.398;8.814;2023-04-06T08:53:15;7.10;;;2.63;;
4200;SDS011;2114;50.398;8.814;2023-04-06T08:58:16;2.73;;;2.30;;
4200;SDS011;2114;50.398;8.814;2023-04-06T09:03:17;5.40;;;3.80;;
4200;SDS011;2114;50.398;8.814;2023-04-06T09:08:19;3.40;;;3.10;;
4200;SDS011;2114;50.398;8.814;2023-04-06T09:13:20;4.07;;;3.13;;
4200;SDS011;2114;50.398;8.814;2023-04-06T09:18:27;4.70;;;2.67;;
4200;SDS011;2114;50.398;8.814;2023-04-06T09:23:32;3.80;;;3.50;;
4200;SDS011;2114;50.398;8.814;2023-04-06T09:28:46;4.60;;;3.23;;
4200;SDS011;2114;50.398;8.814;2023-04-06T09:33:48;4.00;;;3.53;;
4200;SDS011;2114;50.398;8.814;2023-04-06T09:38:55;5.17;;;4.10;;
4200;SDS011;2114;50.398;8.814;2023-04-06T09:49:08;5.07;;;3.83;;
4200;SDS011;2114;50.398;8.814;2023-04-06T09:54:10;3.17;;;2.70;;
4200;SDS011;2114;50.398;8.814;2023-04-06T09:59:37;4.33;;;3.20;;
4200;SDS011;2114;50.398;8.814;2023-04-06T10:04:58;6.13;;;3.77;;
4200;SDS011;2114;50.398;8.814;2023-04-06T10:10:08;3.60;;;3.10;;
4200;SDS011;2114;50.398;8.814;2023-04-06T10:15:11;4.50;;;2.67;;
4200;SDS011;2114;50.398;8.814;2023-04-06T10:20:14;5.47;;;3.50;;
4200;SDS011;2114;50.398;8.814;2023-04-06T10:25:30;6.50;;;3.10;;
4200;SDS011;2114;50.398;8.814;2023-04-06T10:30:32;5.60;;;4.10;;
4200;SDS011;2114;50.398;8.814;2023-04-06T10:35:37;5.23;;;3.00;;
4200;SDS011;2114;50.398;8.814;2023-04-06T10:40:39;5.03;;;3.20;;
4200;SDS011;2114;50.398;8.814;2023-04-06T10:45:41;4.83;;;3.10;;
4200;SDS011;2114;50.398;8.814;2023-04-06T10:50:43;3.60;;;2.73;;
4200;SDS011;2114;50.398;8.814;2023-04-06T10:55:45;6.10;;;3.87;;
4200;SDS011;2114;50.398;8.814;2023-04-06T11:00:48;11.60;;;3.43;;
4200;SDS011;2114;50.398;8.814;2023-04-06T11:05:49;4.47;;;3.40;;
4200;SDS011;2114;50.398;8.814;2023-04-06T11:10:51;7.77;;;3.57;;
4200;SDS011;2114;50.398;8.814;2023-04-06T11:15:51;4.23;;;3.70;;
4200;SDS011;2114;50.398;8.814;2023-04-06T11:20:52;4.07;;;3.57;;
4200;SDS011;2114;50.398;8.814;2023-04-06T11:25:53;20.27;;;18.57;;
4200;SDS011;2114;50.398;8.814;2023-04-06T11:30:54;20.60;;;17.70;;
4200;SDS011;2114;50.398;8.814;2023-04-06T11:35:59;20.60;;;18.70;;
4200;SDS011;2114;50.398;8.814;2023-04-06T11:41:00;3.80;;;3.50;;
4200;SDS011;2114;50.398;8.814;2023-04-06T11:46:01;3.93;;;3.50;;
4200;SDS011;2114;50.398;8.814;2023-04-06T11:51:03;4.23;;;2.80;;
4200;SDS011;2114;50.398;8.814;2023-04-06T11:56:05;3.63;;;2.70;;
4200;SDS011;2114;50.398;8.814;2023-04-06T12:01:05;2.43;;;2.23;;
4200;SDS011;2114;50.398;8.814;2023-04-06T12:06:06;8.73;;;2.57;;
4200;SDS011;2114;50.398;8.814;2023-04-06T12:11:07;2.70;;;2.50;;
4200;SDS011;2114;50.398;8.814;2023-04-06T12:16:07;8.53;;;3.70;;
4200;SDS011;2114;50.398;8.814;2023-04-06T12:21:08;7.40;;;3.20;;
4200;SDS011;2114;50.398;8.814;2023-04-06T12:26:08;3.70;;;2.70;;
4200;SDS011;2114;50.398;8.814;2023-04-06T12:31:14;4.43;;;2.40;;
4200;SDS011;2114;50.398;8.814;2023-04-06T12:36:16;10.17;;;3.03;;
4200;SDS011;2114;50.398;8.814;2023-04-06T12:41:19;6.57;;;3.50;;
4200;SDS011;2114;50.398;8.814;2023-04-06T12:46:20;5.60;;;3.30;;
4200;SDS011;2114;50.398;8.814;2023-04-06T12:51:21;3.87;;;2.37;;
4200;SDS011;2114;50.398;8.814;2023-04-06T12:56:21;9.40;;;3.77;;
4200;SDS011;2114;50.398;8.814;2023-04-06T13:01:22;4.53;;;2.27;;
4200;SDS011;2114;50.398;8.814;2023-04-06T13:06:23;6.23;;;3.53;;
4200;SDS011;2114;50.398;8.814;2023-04-06T13:11:27;5.33;;;2.60;;
4200;SDS011;2114;50.398;8.814;2023-04-06T13:16:28;4.30;;;2.67;;
4200;SDS011;2114;50.398;8.814;2023-04-06T13:21:29;5.40;;;3.10;;
4200;SDS011;2114;50.398;8.814;2023-04-06T13:26:30;5.53;;;3.50;;
4200;SDS011;2114;50.398;8.814;2023-04-06T13:31:30;4.50;;;2.70;;
4200;SDS011;2114;50.398;8.814;2023-04-06T13:36:31;4.90;;;3.10;;
4200;SDS011;2114;50.398;8.814;2023-04-06T13:41:32;4.50;;;2.67;;
4200;SDS011;2114;50.398;8.814;2023-04-06T13:46:32;5.57;;;2.27;;
4200;SDS011;2114;50.398;8.814;2023-04-06T13:51:33;3.60;;;3.30;;
4200;SDS011;2114;50.398;8.814;2023-04-06T13:56:33;4.53;;;2.70;;
4200;SDS011;2114;50.398;8.814;2023-04-06T14:01:34;6.33;;;4.17;;
4200;SDS011;2114;50.398;8.814;2023-04-06T14:06:35;6.10;;;2.90;;
4200;SDS011;2114;50.398;8.814;2023-04-06T14:11:36;7.13;;;2.70;;
4200;SDS011;2114;50.398;8.814;2023-04-06T14:16:38;8.07;;;3.47;;
4200;SDS011;2114;50.398;8.814;2023-04-06T14:21:38;3.87;;;2.13;;
4200;SDS011;2114;50.398;8.814;2023-04-06T14:26:39;7.43;;;2.20;;
4200;SDS011;2114;50.398;8.814;2023-04-06T14:31:47;4.50;;;2.60;;
4200;SDS011;2114;50.398;8.814;2023-04-06T14:36:48;3.40;;;2.43;;
4200;SDS011;2114;50.398;8.814;2023-04-06T14:41:49;3.17;;;2.07;;
4200;SDS011;2114;50.398;8.814;2023-04-06T14:46:49;3.47;;;2.47;;
4200;SDS011;2114;50.398;8.814;2023-04-06T14:51:50;4.43;;;2.20;;
4200;SDS011;2114;50.398;8.814;2023-04-06T14:56:51;3.00;;;2.30;;
4200;SDS011;2114;50.398;8.814;2023-04-06T15:01:52;2.63;;;2.40;;
4200;SDS011;2114;50.398;8.814;2023-04-06T15:06:52;3.03;;;2.73;;
4200;SDS011;2114;50.398;8.814;2023-04-06T15:11:53;5.03;;;3.30;;
4200;SDS011;2114;50.398;8.814;2023-04-06T15:16:53;2.83;;;2.60;;
4200;SDS011;2114;50.398;8.814;2023-04-06T15:21:54;2.93;;;2.20;;
4200;SDS011;2114;50.398;8.814;2023-04-06T15:26:55;3.83;;;2.63;;
4200;SDS011;2114;50.398;8.814;2023-04-06T15:31:56;2.30;;;2.20;;
4200;SDS011;2114;50.398;8.814;2023-04-06T15:36:59;4.70;;;3.33;;
4200;SDS011;2114;50.398;8.814;2023-04-06T15:42:01;2.37;;;1.83;;
4200;SDS011;2114;50.398;8.814;2023-04-06T15:47:02;5.43;;;3.33;;
4200;SDS011;2114;50.398;8.814;2023-04-06T15:52:02;4.83;;;2.67;;
4200;SDS011;2114;50.398;8.814;2023-04-06T15:57:03;4.90;;;1.97;;
4200;SDS011;2114;50.398;8.814;2023-04-06T16:02:03;5.10;;;3.10;;
4200;SDS011;2114;50.398;8.814;2023-04-06T16:07:04;5.73;;;2.43;;
4200;SDS011;2114;50.398;8.814;2023-04-06T16:12:05;1.93;;;1.73;;
4200;SDS011;2114;50.398;8.814;2023-04-06T16:17:06;3.60;;;1.90;;
4200;SDS011;2114;50.398;8.814;2023-04-06T16:22:06;3.43;;;2.53;;
4200;SDS011;2114;50.398;8.814;2023-04-06T16:27:07;4.17;;;2.67;;
4200;SDS011;2114;50.398;8.814;2023-04-06T16:32:07;4.73;;;2.93;;
4200;SDS011;2114;50.398;8.814;2023-04-06T16:37:10;3.43;;;2.43;;
4200;SDS011;2114;50.398;8.814;2023-04-06T16:42:11;2.93;;;1.93;;
4200;SDS011;2114;50.398;8.814;2023-04-06T16:47:12;2.63;;;1.77;;
4200;SDS011;2114;50.398;8.814;2023-04-06T16:52:16;3.63;;;2.03;;
4200;SDS011;2114;50.398;8.814;2023-04-06T16:57:17;5.20;;;2.93;;
4200;SDS011;2114;50.398;8.814;2023-04-06T17:02:17;2.90;;;2.37;;
4200;SDS011;2114;50.398;8.814;2023-04-06T17:07:18;1.83;;;1.63;;
4200;SDS011;2114;50.398;8.814;2023-04-06T17:12:20;2.77;;;1.93;;
4200;SDS011;2114;50.398;8.814;2023-04-06T17:17:21;2.60;;;2.10;;
4200;SDS011;2114;50.398;8.814;2023-04-06T17:22:22;3.13;;;2.10;;
4200;SDS011;2114;50.398;8.814;2023-04-06T17:27:22;2.00;;;1.77;;
4200;SDS011;2114;50.398;8.814;2023-04-06T17:32:25;4.90;;;2.73;;
4200;SDS011;2114;50.398;8.814;2023-04-06T17:37:26;2.97;;;2.30;;
4200;SDS011;2114;50.398;8.814;2023-04-06T17:42:27;4.43;;;2.80;;
4200;SDS011;2114;50.398;8.814;2023-04-06T17:47:28;3.17;;;1.50;;
4200;SDS011;2114;50.398;8.814;2023-04-06T17:52:31;4.20;;;2.47;;
4200;SDS011;2114;50.398;8.814;2023-04-06T17:57:32;3.07;;;2.47;;
4200;SDS011;2114;50.398;8.814;2023-04-06T18:02:32;2.43;;;2.20;;
4200;SDS011;2114;50.398;8.814;2023-04-06T18:07:33;4.63;;;2.50;;
4200;SDS011;2114;50.398;8.814;2023-04-06T18:12:33;2.87;;;2.50;;
4200;SDS011;2114;50.398;8.814;2023-04-06T18:17:34;2.40;;;1.93;;
4200;SDS011;2114;50.398;8.814;2023-04-06T18:22:34;2.33;;;1.53;;
4200;SDS011;2114;50.398;8.814;2023-04-06T18:27:38;3.27;;;1.90;;
4200;SDS011;2114;50.398;8.814;2023-04-06T18:32:39;3.40;;;2.73;;
4200;SDS011;2114;50.398;8.814;2023-04-06T18:37:39;1.73;;;1.63;;
4200;SDS011;2114;50.398;8.814;2023-04-06T18:42:40;1.60;;;1.50;;
4200;SDS011;2114;50.398;8.814;2023-04-06T18:47:41;2.50;;;2.03;;
4200;SDS011;2114;50.398;8.814;2023-04-06T18:52:41;1.47;;;1.30;;
4200;SDS011;2114;50.398;8.814;2023-04-06T18:57:42;1.80;;;1.70;;
4200;SDS011;2114;50.398;8.814;2023-04-06T19:02:43;2.07;;;1.97;;
4200;SDS011;2114;50.398;8.814;2023-04-06T19:07:44;4.93;;;1.87;;
4200;SDS011;2114;50.398;8.814;2023-04-06T19:12:51;1.70;;;1.60;;
4200;SDS011;2114;50.398;8.814;2023-04-06T19:17:51;1.70;;;1.60;;
4200;SDS011;2114;50.398;8.814;2023-04-06T19:22:52;1.80;;;1.43;;
4200;SDS011;2114;50.398;8.814;2023-04-06T19:27:52;1.70;;;1.60;;
4200;SDS011;2114;50.398;8.814;2023-04-06T19:32:53;3.27;;;1.43;;
4200;SDS011;2114;50.398;8.814;2023-04-06T19:37:54;2.57;;;2.37;;
4200;SDS011;2114;50.398;8.814;2023-04-06T19:42:55;3.93;;;2.40;;
4200;SDS011;2114;50.398;8.814;2023-04-06T19:47:55;2.40;;;1.93;;
4200;SDS011;2114;50.398;8.814;2023-04-06T19:52:57;1.10;;;1.10;;
4200;SDS011;2114;50.398;8.814;2023-04-06T19:57:58;3.33;;;2.07;;
4200;SDS011;2114;50.398;8.814;2023-04-06T20:02:59;2.53;;;2.10;;
4200;SDS011;2114;50.398;8.814;2023-04-06T20:08:00;2.73;;;2.10;;
4200;SDS011;2114;50.398;8.814;2023-04-06T20:13:00;1.37;;;1.30;;
4200;SDS011;2114;50.398;8.814;2023-04-06T20:18:01;2.00;;;1.30;;
4200;SDS011;2114;50.398;8.814;2023-04-06T20:23:02;1.50;;;1.50;;
4200;SDS011;2114;50.398;8.814;2023-04-06T20:28:03;1.10;;;1.10;;
4200;SDS011;2114;50.398;8.814;2023-04-06T20:33:04;3.33;;;1.67;;
4200;SDS011;2114;50.398;8.814;2023-04-06T20:38:04;1.90;;;1.57;;
4200;SDS011;2114;50.398;8.814;2023-04-06T20:43:05;3.67;;;2.17;;
4200;SDS011;2114;50.398;8.814;2023-04-06T20:48:08;0.70;;;0.70;;
4200;SDS011;2114;50.398;8.814;2023-04-06T20:53:11;1.27;;;1.20;;
4200;SDS011;2114;50.398;8.814;2023-04-06T20:58:11;5.07;;;2.10;;
4200;SDS011;2114;50.398;8.814;2023-04-06T21:03:14;1.27;;;1.00;;
4200;SDS011;2114;50.398;8.814;2023-04-06T21:08:17;1.00;;;1.00;;
4200;SDS011;2114;50.398;8.814;2023-04-06T21:13:18;1.13;;;1.10;;
4200;SDS011;2114;50.398;8.814;2023-04-06T21:18:19;2.50;;;2.20;;
4200;SDS011;2114;50.398;8.814;2023-04-06T21:23:20;4.93;;;1.73;;
4200;SDS011;2114;50.398;8.814;2023-04-06T21:28:22;1.27;;;1.20;;
4200;SDS011;2114;50.398;8.814;2023-04-06T21:33:24;3.47;;;2.43;;
4200;SDS011;2114;50.398;8.814;2023-04-06T21:38:24;2.03;;;1.80;;
4200;SDS011;2114;50.398;8.814;2023-04-06T21:43:25;1.27;;;1.27;;
4200;SDS011;2114;50.398;8.814;2023-04-06T21:48:25;1.83;;;1.70;;
4200;SDS011;2114;50.398;8.814;2023-04-06T21:53:26;1.50;;;1.40;;
4200;SDS011;2114;50.398;8.814;2023-04-06T21:58:26;1.10;;;1.10;;
4200;SDS011;2114;50.398;8.814;2023-04-06T22:03:27;3.30;;;2.13;;
4200;SDS011;2114;50.398;8.814;2023-04-06T22:08:27;0.87;;;0.87;;
4200;SDS011;2114;50.398;8.814;2023-04-06T22:13:28;2.03;;;1.83;;
4200;SDS011;2114;50.398;8.814;2023-04-06T22:18:29;2.67;;;2.07;;
4200;SDS011;2114;50.398;8.814;2023-04-06T22:23:30;1.80;;;1.60;;
4200;SDS011;2114;50.398;8.814;2023-04-06T22:28:34;1.57;;;1.47;;
4200;SDS011;2114;50.398;8.814;2023-04-06T22:33:34;1.47;;;1.37;;
4200;SDS011;2114;50.398;8.814;2023-04-06T22:38:35;2.63;;;1.77;;
4200;SDS011;2114;50.398;8.814;2023-04-06T22:43:36;1.37;;;1.23;;
4200;SDS011;2114;50.398;8.814;2023-04-06T22:48:36;2.90;;;2.20;;
4200;SDS011;2114;50.398;8.814;2023-04-06T22:53:37;2.60;;;2.07;;
4200;SDS011;2114;50.398;8.814;2023-04-06T22:58:37;2.30;;;2.10;;
4200;SDS011;2114;50.398;8.814;2023-04-06T23:03:38;3.57;;;3.30;;
4200;SDS011;2114;50.398;8.814;2023-04-06T23:08:38;1.90;;;1.33;;
4200;SDS011;2114;50.398;8.814;2023-04-06T23:13:39;2.03;;;1.93;;
4200;SDS011;2114;50.398;8.814;2023-04-06T23:18:39;1.70;;;1.47;;
4200;SDS011;2114;50.398;8.814;2023-04-06T23:23:40;2.97;;;1.63;;
4200;SDS011;2114;50.398;8.814;2023-04-06T23:28:41;3.23;;;1.90;;
4200;SDS011;2114;50.398;8.814;2023-04-06T23:33:41;1.80;;;1.70;;
4200;SDS011;2114;50.398;8.814;2023-04-06T23:38:42;3.50;;;3.03;;
4200;SDS011;2114;50.398;8.814;2023-04-06T23:43:42;1.67;;;1.57;;
4200;SDS011;2114;50.398;8.814;2023-04-06T23:48:43;2.60;;;2.40;;
4200;SDS011;2114;50.398;8.814;2023-04-06T23:53:44;3.10;;;1.87;;
4200;SDS011;2114;50.398;8.814;2023-04-06T23:58:45;2.20;;;1.90;;
